sensor_id;sensor_type;location;lat;lon;timestamp;P1;durP1;ratioP1;P2;durP2;ratioP2
2488;SDS011;1255;48.716;9.124;2023-10-09T03:33:45;9.02;;;3.38;;
2488;SDS011;1255;48.716;9.124;2023-10-09T03:36:12;5.75;;;3.03;;
2488;SDS011;1255;48.716;9.124;2023-10-09T03:38:41;7.47;;;3.70;;
2488;SDS011;1255;48.716;9.124;2023-10-09T03:41:09;3.80;;;2.97;;
2488;SDS011;1255;48.716;9.124;2023-10-09T03:43:38;8.75;;;2.50;;
2488;SDS011;1255;48.716;9.124;2023-10-09T03:46:06;6.60;;;2.53;;
2488;SDS011;1255;48.716;9.124;2023-10-09T03:48:41;6.93;;;3.25;;
2488;SDS011;1255;48.716;9.124;2023-10-09T03:51:11;8.27;;;3.13;;
2488;SDS011;1255;48.716;9.124;2023-10-09T03:53:40;6.95;;;2.67;;
2488;SDS011;1255;48.716;9.124;2023-10-09T03:56:08;6.05;;;2.97;;
2488;SDS011;1255;48.716;9.124;2023-10-09T03:58:38;5.25;;;3.45;;
2488;SDS011;1255;48.716;9.124;2023-10-09T04:01:08;4.90;;;2.72;;
2488;SDS011;1255;48.716;9.124;2023-10-09T04:03:43;5.85;;;2.75;;
2488;SDS011;1255;48.716;9.124;2023-10-09T04:06:10;5.55;;;3.13;;
2488;SDS011;1255;48.716;9.124;2023-10-09T04:08:37;4.35;;;2.75;;
2488;SDS011;1255;48.716;9.124;2023-10-09T04:11:11;4.35;;;2.42;;
2488;SDS011;1255;48.716;9.124;2023-10-09T04:13:42;6.97;;;3.30;;
2488;SDS011;1255;48.716;9.124;2023-10-09T04:16:11;4.80;;;3.03;;
2488;SDS011;1255;48.716;9.124;2023-10-09T04:19:00;5.63;;;3.08;;
2488;SDS011;1255;48.716;9.124;2023-10-09T04:21:32;6.80;;;2.75;;
2488;SDS011;1255;48.716;9.124;2023-10-09T04:24:02;3.72;;;2.75;;
2488;SDS011;1255;48.716;9.124;2023-10-09T04:26:47;10.90;;;5.03;;
2488;SDS011;1255;48.716;9.124;2023-10-09T04:29:19;10.45;;;3.13;;
2488;SDS011;1255;48.716;9.124;2023-10-09T04:31:51;7.85;;;3.30;;
2488;SDS011;1255;48.716;9.124;2023-10-09T04:34:21;9.05;;;3.22;;
2488;SDS011;1255;48.716;9.124;2023-10-09T04:36:47;5.28;;;3.83;;
2488;SDS011;1255;48.716;9.124;2023-10-09T04:39:14;4.20;;;3.15;;
2488;SDS011;1255;48.716;9.124;2023-10-09T04:41:59;4.80;;;3.40;;
2488;SDS011;1255;48.716;9.124;2023-10-09T04:44:40;5.93;;;3.10;;
2488;SDS011;1255;48.716;9.124;2023-10-09T04:47:24;7.18;;;3.92;;
2488;SDS011;1255;48.716;9.124;2023-10-09T04:50:02;7.47;;;4.38;;
2488;SDS011;1255;48.716;9.124;2023-10-09T04:52:36;3.95;;;2.85;;
2488;SDS011;1255;48.716;9.124;2023-10-09T04:55:18;7.57;;;3.70;;
2488;SDS011;1255;48.716;9.124;2023-10-09T04:57:49;6.30;;;3.17;;
2488;SDS011;1255;48.716;9.124;2023-10-09T05:00:27;4.72;;;2.58;;
2488;SDS011;1255;48.716;9.124;2023-10-09T05:03:12;6.95;;;3.30;;
2488;SDS011;1255;48.716;9.124;2023-10-09T05:05:51;7.35;;;3.20;;
2488;SDS011;1255;48.716;9.124;2023-10-09T05:08:25;4.97;;;3.60;;
2488;SDS011;1255;48.716;9.124;2023-10-09T05:10:55;7.38;;;2.85;;
2488;SDS011;1255;48.716;9.124;2023-10-09T05:13:30;6.07;;;3.55;;
2488;SDS011;1255;48.716;9.124;2023-10-09T05:16:08;7.05;;;3.30;;
2488;SDS011;1255;48.716;9.124;2023-10-09T05:18:40;4.72;;;2.63;;
2488;SDS011;1255;48.716;9.124;2023-10-09T05:21:08;8.23;;;3.25;;
2488;SDS011;1255;48.716;9.124;2023-10-09T05:23:49;4.25;;;2.55;;
2488;SDS011;1255;48.716;9.124;2023-10-09T05:26:35;4.53;;;3.25;;
2488;SDS011;1255;48.716;9.124;2023-10-09T05:29:16;5.82;;;3.25;;
2488;SDS011;1255;48.716;9.124;2023-10-09T05:31:49;8.57;;;4.85;;
2488;SDS011;1255;48.716;9.124;2023-10-09T05:34:21;5.65;;;3.60;;
2488;SDS011;1255;48.716;9.124;2023-10-09T05:36:49;7.50;;;3.05;;
2488;SDS011;1255;48.716;9.124;2023-10-09T05:39:15;4.63;;;2.85;;
2488;SDS011;1255;48.716;9.124;2023-10-09T05:41:54;5.50;;;3.00;;
2488;SDS011;1255;48.716;9.124;2023-10-09T05:44:27;7.35;;;3.28;;
2488;SDS011;1255;48.716;9.124;2023-10-09T05:47:11;13.43;;;4.53;;
2488;SDS011;1255;48.716;9.124;2023-10-09T05:50:04;3.73;;;2.80;;
2488;SDS011;1255;48.716;9.124;2023-10-09T05:53:01;5.00;;;3.40;;
2488;SDS011;1255;48.716;9.124;2023-10-09T05:55:32;5.28;;;3.13;;
2488;SDS011;1255;48.716;9.124;2023-10-09T05:58:35;7.03;;;3.50;;
2488;SDS011;1255;48.716;9.124;2023-10-09T06:01:19;7.60;;;3.13;;
2488;SDS011;1255;48.716;9.124;2023-10-09T06:04:03;5.82;;;2.95;;
2488;SDS011;1255;48.716;9.124;2023-10-09T06:06:40;4.68;;;2.10;;
2488;SDS011;1255;48.716;9.124;2023-10-09T06:09:12;5.90;;;2.60;;
2488;SDS011;1255;48.716;9.124;2023-10-09T06:12:14;3.85;;;2.90;;
2488;SDS011;1255;48.716;9.124;2023-10-09T06:14:58;6.87;;;3.00;;
2488;SDS011;1255;48.716;9.124;2023-10-09T06:17:43;12.03;;;3.30;;
2488;SDS011;1255;48.716;9.124;2023-10-09T06:20:15;7.00;;;3.13;;
2488;SDS011;1255;48.716;9.124;2023-10-09T06:23:00;5.20;;;2.20;;
2488;SDS011;1255;48.716;9.124;2023-10-09T06:25:42;5.83;;;2.80;;
2488;SDS011;1255;48.716;9.124;2023-10-09T06:28:16;5.40;;;2.80;;
2488;SDS011;1255;48.716;9.124;2023-10-09T06:30:44;5.73;;;2.53;;
2488;SDS011;1255;48.716;9.124;2023-10-09T06:33:12;6.70;;;3.53;;
2488;SDS011;1255;48.716;9.124;2023-10-09T06:35:54;5.70;;;4.03;;
2488;SDS011;1255;48.716;9.124;2023-10-09T06:38:21;7.63;;;3.17;;
2488;SDS011;1255;48.716;9.124;2023-10-09T06:40:49;5.93;;;3.73;;
2488;SDS011;1255;48.716;9.124;2023-10-09T06:43:42;17.47;;;3.23;;
2488;SDS011;1255;48.716;9.124;2023-10-09T06:46:14;5.37;;;2.53;;
2488;SDS011;1255;48.716;9.124;2023-10-09T06:48:59;3.97;;;2.97;;
2488;SDS011;1255;48.716;9.124;2023-10-09T06:51:44;4.67;;;2.87;;
2488;SDS011;1255;48.716;9.124;2023-10-09T06:54:12;6.70;;;2.70;;
2488;SDS011;1255;48.716;9.124;2023-10-09T06:56:43;5.63;;;2.37;;
2488;SDS011;1255;48.716;9.124;2023-10-09T06:59:27;5.63;;;2.10;;
2488;SDS011;1255;48.716;9.124;2023-10-09T07:02:06;4.00;;;2.40;;
2488;SDS011;1255;48.716;9.124;2023-10-09T07:04:51;4.47;;;2.30;;
2488;SDS011;1255;48.716;9.124;2023-10-09T07:07:20;5.37;;;2.57;;
2488;SDS011;1255;48.716;9.124;2023-10-09T07:09:49;11.20;;;3.60;;
2488;SDS011;1255;48.716;9.124;2023-10-09T07:12:36;6.33;;;2.97;;
2488;SDS011;1255;48.716;9.124;2023-10-09T07:15:09;5.10;;;2.10;;
2488;SDS011;1255;48.716;9.124;2023-10-09T07:17:50;5.20;;;2.50;;
2488;SDS011;1255;48.716;9.124;2023-10-09T07:20:18;8.90;;;2.63;;
2488;SDS011;1255;48.716;9.124;2023-10-09T07:22:58;4.17;;;2.00;;
2488;SDS011;1255;48.716;9.124;2023-10-09T07:25:38;7.30;;;2.60;;
2488;SDS011;1255;48.716;9.124;2023-10-09T07:28:21;4.37;;;2.80;;
2488;SDS011;1255;48.716;9.124;2023-10-09T07:31:07;9.27;;;2.97;;
2488;SDS011;1255;48.716;9.124;2023-10-09T07:33:49;5.47;;;2.47;;
2488;SDS011;1255;48.716;9.124;2023-10-09T07:36:32;3.70;;;2.13;;
2488;SDS011;1255;48.716;9.124;2023-10-09T07:39:03;5.17;;;3.27;;
2488;SDS011;1255;48.716;9.124;2023-10-09T07:41:38;5.67;;;2.50;;
2488;SDS011;1255;48.716;9.124;2023-10-09T07:44:11;6.27;;;2.87;;
2488;SDS011;1255;48.716;9.124;2023-10-09T07:46:56;6.93;;;2.23;;
2488;SDS011;1255;48.716;9.124;2023-10-09T07:49:36;4.80;;;2.10;;
2488;SDS011;1255;48.716;9.124;2023-10-09T07:52:03;10.93;;;2.93;;
2488;SDS011;1255;48.716;9.124;2023-10-09T07:54:31;4.93;;;2.43;;
2488;SDS011;1255;48.716;9.124;2023-10-09T07:56:58;5.00;;;2.60;;
2488;SDS011;1255;48.716;9.124;2023-10-09T07:59:35;4.93;;;2.47;;
2488;SDS011;1255;48.716;9.124;2023-10-09T08:02:06;5.50;;;1.90;;
2488;SDS011;1255;48.716;9.124;2023-10-09T08:04:38;7.27;;;2.60;;
2488;SDS011;1255;48.716;9.124;2023-10-09T08:07:13;4.87;;;2.60;;
2488;SDS011;1255;48.716;9.124;2023-10-09T08:09:50;5.37;;;2.40;;
2488;SDS011;1255;48.716;9.124;2023-10-09T08:12:37;3.87;;;2.20;;
2488;SDS011;1255;48.716;9.124;2023-10-09T08:15:22;5.03;;;2.37;;
2488;SDS011;1255;48.716;9.124;2023-10-09T08:17:52;8.80;;;3.27;;
2488;SDS011;1255;48.716;9.124;2023-10-09T08:20:20;4.13;;;2.07;;
2488;SDS011;1255;48.716;9.124;2023-10-09T08:22:50;8.80;;;3.27;;
2488;SDS011;1255;48.716;9.124;2023-10-09T08:25:17;2.70;;;1.57;;
2488;SDS011;1255;48.716;9.124;2023-10-09T08:27:57;4.60;;;2.90;;
2488;SDS011;1255;48.716;9.124;2023-10-09T08:30:45;3.70;;;2.30;;
2488;SDS011;1255;48.716;9.124;2023-10-09T08:33:27;5.20;;;2.50;;
2488;SDS011;1255;48.716;9.124;2023-10-09T08:36:06;3.37;;;2.37;;
2488;SDS011;1255;48.716;9.124;2023-10-09T08:38:34;6.90;;;2.70;;
2488;SDS011;1255;48.716;9.124;2023-10-09T08:41:07;7.33;;;2.50;;
2488;SDS011;1255;48.716;9.124;2023-10-09T08:43:44;3.80;;;2.00;;
2488;SDS011;1255;48.716;9.124;2023-10-09T08:46:18;8.33;;;3.27;;
2488;SDS011;1255;48.716;9.124;2023-10-09T08:48:47;3.80;;;2.03;;
2488;SDS011;1255;48.716;9.124;2023-10-09T08:51:14;5.23;;;2.30;;
2488;SDS011;1255;48.716;9.124;2023-10-09T08:53:43;3.50;;;2.03;;
2488;SDS011;1255;48.716;9.124;2023-10-09T08:56:11;4.57;;;2.27;;
2488;SDS011;1255;48.716;9.124;2023-10-09T08:58:40;5.20;;;2.30;;
2488;SDS011;1255;48.716;9.124;2023-10-09T09:01:07;6.53;;;3.00;;
2488;SDS011;1255;48.716;9.124;2023-10-09T09:03:41;3.00;;;2.27;;
2488;SDS011;1255;48.716;9.124;2023-10-09T09:06:09;5.83;;;2.70;;
2488;SDS011;1255;48.716;9.124;2023-10-09T09:08:36;6.07;;;2.73;;
2488;SDS011;1255;48.716;9.124;2023-10-09T09:11:04;5.13;;;2.90;;
2488;SDS011;1255;48.716;9.124;2023-10-09T09:13:38;6.83;;;2.60;;
2488;SDS011;1255;48.716;9.124;2023-10-09T09:16:16;3.83;;;1.63;;
2488;SDS011;1255;48.716;9.124;2023-10-09T09:18:51;5.00;;;2.97;;
2488;SDS011;1255;48.716;9.124;2023-10-09T09:21:25;4.63;;;3.03;;
2488;SDS011;1255;48.716;9.124;2023-10-09T09:23:53;5.63;;;2.33;;
2488;SDS011;1255;48.716;9.124;2023-10-09T09:26:32;6.23;;;3.33;;
2488;SDS011;1255;48.716;9.124;2023-10-09T09:29:02;3.47;;;1.97;;
2488;SDS011;1255;48.716;9.124;2023-10-09T09:31:33;3.13;;;2.23;;
2488;SDS011;1255;48.716;9.124;2023-10-09T09:34:06;5.87;;;2.70;;
2488;SDS011;1255;48.716;9.124;2023-10-09T09:36:50;8.93;;;2.63;;
2488;SDS011;1255;48.716;9.124;2023-10-09T09:39:21;3.63;;;2.40;;
2488;SDS011;1255;48.716;9.124;2023-10-09T09:41:56;3.47;;;2.03;;
2488;SDS011;1255;48.716;9.124;2023-10-09T09:44:30;7.50;;;3.17;;
2488;SDS011;1255;48.716;9.124;2023-10-09T09:46:59;6.87;;;2.80;;
2488;SDS011;1255;48.716;9.124;2023-10-09T09:49:28;3.50;;;2.23;;
2488;SDS011;1255;48.716;9.124;2023-10-09T09:51:58;6.60;;;2.63;;
2488;SDS011;1255;48.716;9.124;2023-10-09T09:54:28;3.83;;;2.70;;
2488;SDS011;1255;48.716;9.124;2023-10-09T09:56:58;3.43;;;2.30;;
2488;SDS011;1255;48.716;9.124;2023-10-09T09:59:33;6.70;;;2.70;;
2488;SDS011;1255;48.716;9.124;2023-10-09T10:02:15;4.67;;;3.07;;
2488;SDS011;1255;48.716;9.124;2023-10-09T10:04:50;2.37;;;1.80;;
2488;SDS011;1255;48.716;9.124;2023-10-09T10:07:21;10.13;;;3.17;;
2488;SDS011;1255;48.716;9.124;2023-10-09T10:09:50;5.23;;;2.83;;
2488;SDS011;1255;48.716;9.124;2023-10-09T10:18:25;7.37;;;2.63;;
2488;SDS011;1255;48.716;9.124;2023-10-09T10:21:11;7.37;;;2.57;;
2488;SDS011;1255;48.716;9.124;2023-10-09T10:23:41;6.40;;;2.23;;
2488;SDS011;1255;48.716;9.124;2023-10-09T10:26:18;5.70;;;2.57;;
2488;SDS011;1255;48.716;9.124;2023-10-09T10:31:53;7.57;;;3.00;;
2488;SDS011;1255;48.716;9.124;2023-10-09T10:34:21;6.87;;;3.10;;
2488;SDS011;1255;48.716;9.124;2023-10-09T10:36:51;6.00;;;2.63;;
2488;SDS011;1255;48.716;9.124;2023-10-09T10:39:27;4.30;;;2.53;;
2488;SDS011;1255;48.716;9.124;2023-10-09T10:42:21;6.40;;;2.90;;
2488;SDS011;1255;48.716;9.124;2023-10-09T10:44:59;8.57;;;3.37;;
2488;SDS011;1255;48.716;9.124;2023-10-09T10:47:27;6.63;;;3.03;;
2488;SDS011;1255;48.716;9.124;2023-10-09T10:49:59;6.33;;;2.57;;
2488;SDS011;1255;48.716;9.124;2023-10-09T10:52:36;7.23;;;3.23;;
2488;SDS011;1255;48.716;9.124;2023-10-09T10:55:08;6.20;;;3.10;;
2488;SDS011;1255;48.716;9.124;2023-10-09T10:58:15;16.10;;;3.30;;
2488;SDS011;1255;48.716;9.124;2023-10-09T11:00:51;8.53;;;3.10;;
2488;SDS011;1255;48.716;9.124;2023-10-09T11:03:37;7.50;;;2.80;;
2488;SDS011;1255;48.716;9.124;2023-10-09T11:06:23;6.83;;;3.47;;
2488;SDS011;1255;48.716;9.124;2023-10-09T11:09:00;4.73;;;2.37;;
2488;SDS011;1255;48.716;9.124;2023-10-09T11:11:45;5.30;;;2.67;;
2488;SDS011;1255;48.716;9.124;2023-10-09T11:14:14;6.83;;;3.13;;
2488;SDS011;1255;48.716;9.124;2023-10-09T11:16:40;6.70;;;3.17;;
2488;SDS011;1255;48.716;9.124;2023-10-09T11:19:08;6.67;;;2.57;;
2488;SDS011;1255;48.716;9.124;2023-10-09T11:21:48;6.47;;;3.00;;
2488;SDS011;1255;48.716;9.124;2023-10-09T11:24:23;5.43;;;2.10;;
2488;SDS011;1255;48.716;9.124;2023-10-09T11:26:50;7.47;;;3.23;;
2488;SDS011;1255;48.716;9.124;2023-10-09T11:29:23;10.13;;;2.80;;
2488;SDS011;1255;48.716;9.124;2023-10-09T11:32:00;6.67;;;3.10;;
2488;SDS011;1255;48.716;9.124;2023-10-09T11:34:29;6.67;;;2.90;;
2488;SDS011;1255;48.716;9.124;2023-10-09T11:36:56;6.20;;;3.03;;
2488;SDS011;1255;48.716;9.124;2023-10-09T11:39:23;8.40;;;3.23;;
2488;SDS011;1255;48.716;9.124;2023-10-09T11:42:08;8.30;;;2.77;;
2488;SDS011;1255;48.716;9.124;2023-10-09T11:44:41;6.93;;;2.70;;
2488;SDS011;1255;48.716;9.124;2023-10-09T11:47:11;9.20;;;3.73;;
2488;SDS011;1255;48.716;9.124;2023-10-09T11:49:50;4.73;;;2.60;;
2488;SDS011;1255;48.716;9.124;2023-10-09T11:52:27;7.73;;;3.00;;
2488;SDS011;1255;48.716;9.124;2023-10-09T11:55:02;8.83;;;2.77;;
2488;SDS011;1255;48.716;9.124;2023-10-09T11:57:32;5.43;;;2.70;;
2488;SDS011;1255;48.716;9.124;2023-10-09T12:00:02;5.17;;;2.73;;
2488;SDS011;1255;48.716;9.124;2023-10-09T12:02:50;6.00;;;3.17;;
2488;SDS011;1255;48.716;9.124;2023-10-09T12:05:17;4.10;;;2.43;;
2488;SDS011;1255;48.716;9.124;2023-10-09T12:07:44;3.77;;;2.37;;
2488;SDS011;1255;48.716;9.124;2023-10-09T12:10:11;6.83;;;2.90;;
2488;SDS011;1255;48.716;9.124;2023-10-09T12:12:49;10.20;;;3.20;;
2488;SDS011;1255;48.716;9.124;2023-10-09T12:15:17;4.67;;;2.90;;
2488;SDS011;1255;48.716;9.124;2023-10-09T12:17:46;4.37;;;3.00;;
2488;SDS011;1255;48.716;9.124;2023-10-09T12:20:14;4.70;;;3.00;;
2488;SDS011;1255;48.716;9.124;2023-10-09T12:22:55;7.17;;;4.13;;
2488;SDS011;1255;48.716;9.124;2023-10-09T12:25:23;5.57;;;3.10;;
2488;SDS011;1255;48.716;9.124;2023-10-09T12:27:50;5.97;;;2.97;;
2488;SDS011;1255;48.716;9.124;2023-10-09T12:30:23;9.20;;;3.80;;
2488;SDS011;1255;48.716;9.124;2023-10-09T12:32:52;8.20;;;3.27;;
2488;SDS011;1255;48.716;9.124;2023-10-09T12:35:19;8.80;;;3.43;;
2488;SDS011;1255;48.716;9.124;2023-10-09T12:37:46;3.53;;;2.73;;
2488;SDS011;1255;48.716;9.124;2023-10-09T12:40:14;5.60;;;3.00;;
2488;SDS011;1255;48.716;9.124;2023-10-09T12:42:49;4.57;;;3.00;;
2488;SDS011;1255;48.716;9.124;2023-10-09T12:45:17;4.70;;;3.30;;
2488;SDS011;1255;48.716;9.124;2023-10-09T12:47:52;5.23;;;2.87;;
2488;SDS011;1255;48.716;9.124;2023-10-09T12:50:23;5.03;;;2.50;;
2488;SDS011;1255;48.716;9.124;2023-10-09T12:52:54;5.20;;;3.73;;
2488;SDS011;1255;48.716;9.124;2023-10-09T12:55:21;5.40;;;2.87;;
2488;SDS011;1255;48.716;9.124;2023-10-09T12:57:56;5.77;;;3.43;;
2488;SDS011;1255;48.716;9.124;2023-10-09T13:00:31;4.60;;;3.67;;
2488;SDS011;1255;48.716;9.124;2023-10-09T13:03:00;5.10;;;3.13;;
2488;SDS011;1255;48.716;9.124;2023-10-09T13:05:27;5.80;;;2.97;;
2488;SDS011;1255;48.716;9.124;2023-10-09T13:07:53;6.10;;;3.43;;
2488;SDS011;1255;48.716;9.124;2023-10-09T13:10:21;11.23;;;4.73;;
2488;SDS011;1255;48.716;9.124;2023-10-09T13:12:49;4.00;;;2.63;;
2488;SDS011;1255;48.716;9.124;2023-10-09T13:15:20;5.10;;;2.77;;
2488;SDS011;1255;48.716;9.124;2023-10-09T13:17:47;6.97;;;3.43;;
2488;SDS011;1255;48.716;9.124;2023-10-09T13:20:15;5.87;;;3.60;;
2488;SDS011;1255;48.716;9.124;2023-10-09T13:22:42;6.20;;;3.33;;
2488;SDS011;1255;48.716;9.124;2023-10-09T13:25:11;8.13;;;3.67;;
2488;SDS011;1255;48.716;9.124;2023-10-09T13:27:41;6.43;;;3.70;;
2488;SDS011;1255;48.716;9.124;2023-10-09T13:30:15;6.50;;;3.57;;
2488;SDS011;1255;48.716;9.124;2023-10-09T13:32:47;5.50;;;4.37;;
2488;SDS011;1255;48.716;9.124;2023-10-09T13:35:16;5.87;;;3.17;;
2488;SDS011;1255;48.716;9.124;2023-10-09T13:37:43;4.40;;;3.50;;
2488;SDS011;1255;48.716;9.124;2023-10-09T13:40:19;9.30;;;3.50;;
2488;SDS011;1255;48.716;9.124;2023-10-09T13:42:52;6.60;;;3.30;;
2488;SDS011;1255;48.716;9.124;2023-10-09T13:45:23;4.77;;;3.77;;
2488;SDS011;1255;48.716;9.124;2023-10-09T13:47:53;4.43;;;2.90;;
2488;SDS011;1255;48.716;9.124;2023-10-09T13:50:24;5.33;;;2.80;;
2488;SDS011;1255;48.716;9.124;2023-10-09T13:52:54;5.67;;;3.80;;
2488;SDS011;1255;48.716;9.124;2023-10-09T13:55:21;4.20;;;3.67;;
2488;SDS011;1255;48.716;9.124;2023-10-09T13:57:55;4.97;;;3.50;;
2488;SDS011;1255;48.716;9.124;2023-10-09T14:00:22;3.90;;;3.07;;
2488;SDS011;1255;48.716;9.124;2023-10-09T14:02:59;7.20;;;3.43;;
2488;SDS011;1255;48.716;9.124;2023-10-09T14:05:36;6.10;;;3.30;;
2488;SDS011;1255;48.716;9.124;2023-10-09T14:08:16;5.10;;;3.27;;
2488;SDS011;1255;48.716;9.124;2023-10-09T14:10:46;8.33;;;3.13;;
2488;SDS011;1255;48.716;9.124;2023-10-09T14:13:13;6.83;;;3.43;;
2488;SDS011;1255;48.716;9.124;2023-10-09T14:15:41;5.40;;;2.87;;
2488;SDS011;1255;48.716;9.124;2023-10-09T14:18:10;6.63;;;3.43;;
2488;SDS011;1255;48.716;9.124;2023-10-09T14:20:39;6.03;;;2.80;;
2488;SDS011;1255;48.716;9.124;2023-10-09T14:23:06;3.77;;;3.13;;
2488;SDS011;1255;48.716;9.124;2023-10-09T14:25:36;5.30;;;3.00;;
2488;SDS011;1255;48.716;9.124;2023-10-09T14:28:04;5.73;;;2.97;;
2488;SDS011;1255;48.716;9.124;2023-10-09T14:30:33;6.63;;;3.30;;
2488;SDS011;1255;48.716;9.124;2023-10-09T14:33:07;3.80;;;3.10;;
2488;SDS011;1255;48.716;9.124;2023-10-09T14:35:38;4.97;;;3.03;;
2488;SDS011;1255;48.716;9.124;2023-10-09T14:38:05;7.10;;;3.57;;
2488;SDS011;1255;48.716;9.124;2023-10-09T14:40:37;6.73;;;3.70;;
2488;SDS011;1255;48.716;9.124;2023-10-09T14:43:07;5.27;;;3.67;;
2488;SDS011;1255;48.716;9.124;2023-10-09T14:45:41;5.20;;;3.40;;
2488;SDS011;1255;48.716;9.124;2023-10-09T14:48:08;6.93;;;3.77;;
2488;SDS011;1255;48.716;9.124;2023-10-09T14:50:36;5.73;;;3.17;;
2488;SDS011;1255;48.716;9.124;2023-10-09T14:53:12;4.93;;;2.97;;
2488;SDS011;1255;48.716;9.124;2023-10-09T14:55:40;5.97;;;3.60;;
2488;SDS011;1255;48.716;9.124;2023-10-09T14:58:10;4.37;;;3.40;;
2488;SDS011;1255;48.716;9.124;2023-10-09T15:00:37;4.57;;;3.20;;
2488;SDS011;1255;48.716;9.124;2023-10-09T15:03:11;6.37;;;3.50;;
2488;SDS011;1255;48.716;9.124;2023-10-09T15:05:40;4.90;;;3.40;;
2488;SDS011;1255;48.716;9.124;2023-10-09T15:08:08;4.97;;;4.00;;
2488;SDS011;1255;48.716;9.124;2023-10-09T15:10:36;6.27;;;3.47;;
2488;SDS011;1255;48.716;9.124;2023-10-09T15:13:09;4.90;;;2.93;;
2488;SDS011;1255;48.716;9.124;2023-10-09T15:15:39;4.97;;;3.27;;
2488;SDS011;1255;48.716;9.124;2023-10-09T15:18:06;4.90;;;3.50;;
2488;SDS011;1255;48.716;9.124;2023-10-09T15:20:34;9.23;;;4.00;;
2488;SDS011;1255;48.716;9.124;2023-10-09T15:23:03;7.37;;;3.57;;
2488;SDS011;1255;48.716;9.124;2023-10-09T15:25:30;4.97;;;3.30;;
2488;SDS011;1255;48.716;9.124;2023-10-09T15:27:59;4.33;;;3.00;;
2488;SDS011;1255;48.716;9.124;2023-10-09T15:30:25;4.73;;;3.67;;
2488;SDS011;1255;48.716;9.124;2023-10-09T15:32:52;4.93;;;3.53;;
2488;SDS011;1255;48.716;9.124;2023-10-09T15:35:21;6.37;;;3.83;;
2488;SDS011;1255;48.716;9.124;2023-10-09T15:37:48;5.73;;;3.30;;
2488;SDS011;1255;48.716;9.124;2023-10-09T15:40:18;7.47;;;3.10;;
2488;SDS011;1255;48.716;9.124;2023-10-09T15:42:49;5.37;;;3.10;;
2488;SDS011;1255;48.716;9.124;2023-10-09T15:45:21;6.67;;;3.60;;
2488;SDS011;1255;48.716;9.124;2023-10-09T15:47:48;4.03;;;2.83;;
2488;SDS011;1255;48.716;9.124;2023-10-09T15:50:16;5.27;;;3.20;;
2488;SDS011;1255;48.716;9.124;2023-10-09T15:52:44;5.93;;;3.70;;
2488;SDS011;1255;48.716;9.124;2023-10-09T15:55:12;6.10;;;3.50;;
2488;SDS011;1255;48.716;9.124;2023-10-09T15:57:41;4.80;;;3.50;;
2488;SDS011;1255;48.716;9.124;2023-10-09T16:00:08;5.83;;;2.83;;
2488;SDS011;1255;48.716;9.124;2023-10-09T16:02:42;4.17;;;2.83;;
2488;SDS011;1255;48.716;9.124;2023-10-09T16:05:10;6.47;;;3.40;;
2488;SDS011;1255;48.716;9.124;2023-10-09T16:07:38;4.37;;;3.37;;
2488;SDS011;1255;48.716;9.124;2023-10-09T16:10:05;5.83;;;2.83;;
2488;SDS011;1255;48.716;9.124;2023-10-09T16:12:34;6.10;;;3.47;;
2488;SDS011;1255;48.716;9.124;2023-10-09T16:15:02;3.87;;;3.00;;
2488;SDS011;1255;48.716;9.124;2023-10-09T16:17:30;5.43;;;3.60;;
2488;SDS011;1255;48.716;9.124;2023-10-09T16:19:57;7.03;;;3.50;;
2488;SDS011;1255;48.716;9.124;2023-10-09T16:22:24;6.73;;;3.30;;
2488;SDS011;1255;48.716;9.124;2023-10-09T16:24:53;6.03;;;3.47;;
2488;SDS011;1255;48.716;9.124;2023-10-09T16:27:21;5.87;;;3.90;;
2488;SDS011;1255;48.716;9.124;2023-10-09T16:29:48;6.80;;;3.53;;
2488;SDS011;1255;48.716;9.124;2023-10-09T16:32:17;5.80;;;3.60;;
2488;SDS011;1255;48.716;9.124;2023-10-09T16:34:47;6.70;;;3.30;;
2488;SDS011;1255;48.716;9.124;2023-10-09T16:37:14;6.17;;;4.00;;
2488;SDS011;1255;48.716;9.124;2023-10-09T16:39:42;7.93;;;3.37;;
2488;SDS011;1255;48.716;9.124;2023-10-09T16:42:09;5.17;;;3.77;;
2488;SDS011;1255;48.716;9.124;2023-10-09T16:44:38;10.77;;;3.60;;
2488;SDS011;1255;48.716;9.124;2023-10-09T16:47:05;5.60;;;3.00;;
2488;SDS011;1255;48.716;9.124;2023-10-09T16:49:35;6.93;;;3.30;;
2488;SDS011;1255;48.716;9.124;2023-10-09T16:52:03;5.40;;;2.97;;
2488;SDS011;1255;48.716;9.124;2023-10-09T16:54:36;10.70;;;4.37;;
2488;SDS011;1255;48.716;9.124;2023-10-09T16:57:03;6.57;;;4.10;;
2488;SDS011;1255;48.716;9.124;2023-10-09T16:59:33;6.97;;;3.40;;
2488;SDS011;1255;48.716;9.124;2023-10-09T17:02:00;5.90;;;3.27;;
2488;SDS011;1255;48.716;9.124;2023-10-09T17:04:31;6.73;;;3.53;;
2488;SDS011;1255;48.716;9.124;2023-10-09T17:06:59;6.37;;;3.83;;
2488;SDS011;1255;48.716;9.124;2023-10-09T17:09:29;3.77;;;3.13;;
2488;SDS011;1255;48.716;9.124;2023-10-09T17:11:59;9.40;;;3.70;;
2488;SDS011;1255;48.716;9.124;2023-10-09T17:14:28;6.83;;;3.27;;
2488;SDS011;1255;48.716;9.124;2023-10-09T17:16:59;4.23;;;2.90;;
2488;SDS011;1255;48.716;9.124;2023-10-09T17:19:26;5.30;;;3.40;;
2488;SDS011;1255;48.716;9.124;2023-10-09T17:21:53;10.23;;;3.57;;
2488;SDS011;1255;48.716;9.124;2023-10-09T17:24:23;6.40;;;3.13;;
2488;SDS011;1255;48.716;9.124;2023-10-09T17:26:50;3.57;;;2.70;;
2488;SDS011;1255;48.716;9.124;2023-10-09T17:29:18;4.47;;;2.70;;
2488;SDS011;1255;48.716;9.124;2023-10-09T17:31:45;4.83;;;3.03;;
2488;SDS011;1255;48.716;9.124;2023-10-09T17:34:12;7.37;;;3.37;;
2488;SDS011;1255;48.716;9.124;2023-10-09T17:36:42;9.60;;;3.20;;
2488;SDS011;1255;48.716;9.124;2023-10-09T17:39:09;6.90;;;4.47;;
2488;SDS011;1255;48.716;9.124;2023-10-09T17:41:39;9.93;;;3.30;;
2488;SDS011;1255;48.716;9.124;2023-10-09T17:44:06;6.00;;;3.07;;
2488;SDS011;1255;48.716;9.124;2023-10-09T17:46:32;7.60;;;3.70;;
2488;SDS011;1255;48.716;9.124;2023-10-09T17:48:59;17.80;;;6.63;;
2488;SDS011;1255;48.716;9.124;2023-10-09T17:51:26;19.60;;;8.83;;
2488;SDS011;1255;48.716;9.124;2023-10-09T17:53:53;23.60;;;9.13;;
2488;SDS011;1255;48.716;9.124;2023-10-09T17:56:19;27.07;;;10.17;;
2488;SDS011;1255;48.716;9.124;2023-10-09T17:58:52;22.73;;;8.97;;
2488;SDS011;1255;48.716;9.124;2023-10-09T18:01:18;11.50;;;6.47;;
2488;SDS011;1255;48.716;9.124;2023-10-09T18:03:49;16.67;;;8.00;;
2488;SDS011;1255;48.716;9.124;2023-10-09T18:06:16;10.47;;;6.07;;
2488;SDS011;1255;48.716;9.124;2023-10-09T18:08:43;12.27;;;5.40;;
2488;SDS011;1255;48.716;9.124;2023-10-09T18:11:11;8.80;;;4.77;;
2488;SDS011;1255;48.716;9.124;2023-10-09T18:13:39;6.77;;;3.93;;
2488;SDS011;1255;48.716;9.124;2023-10-09T18:16:07;7.53;;;4.10;;
2488;SDS011;1255;48.716;9.124;2023-10-09T18:18:36;8.23;;;4.10;;
2488;SDS011;1255;48.716;9.124;2023-10-09T18:21:05;4.57;;;3.30;;
2488;SDS011;1255;48.716;9.124;2023-10-09T18:23:32;12.63;;;3.67;;
2488;SDS011;1255;48.716;9.124;2023-10-09T18:26:00;10.90;;;5.20;;
2488;SDS011;1255;48.716;9.124;2023-10-09T18:28:28;7.67;;;3.80;;
2488;SDS011;1255;48.716;9.124;2023-10-09T18:30:55;7.23;;;4.97;;
2488;SDS011;1255;48.716;9.124;2023-10-09T18:33:23;6.67;;;3.80;;
2488;SDS011;1255;48.716;9.124;2023-10-09T18:35:50;10.33;;;3.60;;
2488;SDS011;1255;48.716;9.124;2023-10-09T18:38:17;7.80;;;3.70;;
2488;SDS011;1255;48.716;9.124;2023-10-09T18:40:44;4.87;;;3.43;;
2488;SDS011;1255;48.716;9.124;2023-10-09T18:43:12;6.17;;;3.33;;
2488;SDS011;1255;48.716;9.124;2023-10-09T18:45:39;8.60;;;3.30;;
2488;SDS011;1255;48.716;9.124;2023-10-09T18:48:05;9.13;;;4.50;;
2488;SDS011;1255;48.716;9.124;2023-10-09T18:50:37;9.50;;;3.57;;
2488;SDS011;1255;48.716;9.124;2023-10-09T18:53:06;5.10;;;3.27;;
2488;SDS011;1255;48.716;9.124;2023-10-09T18:55:35;8.93;;;4.07;;
2488;SDS011;1255;48.716;9.124;2023-10-09T18:58:02;7.20;;;3.63;;
2488;SDS011;1255;48.716;9.124;2023-10-09T19:00:29;6.30;;;3.43;;
2488;SDS011;1255;48.716;9.124;2023-10-09T19:02:56;7.33;;;3.23;;
2488;SDS011;1255;48.716;9.124;2023-10-09T19:05:25;6.80;;;3.37;;
2488;SDS011;1255;48.716;9.124;2023-10-09T19:07:53;6.03;;;3.53;;
2488;SDS011;1255;48.716;9.124;2023-10-09T19:10:20;8.30;;;3.47;;
2488;SDS011;1255;48.716;9.124;2023-10-09T19:12:47;5.20;;;2.93;;
2488;SDS011;1255;48.716;9.124;2023-10-09T19:15:14;8.43;;;3.27;;
2488;SDS011;1255;48.716;9.124;2023-10-09T19:17:41;7.63;;;2.70;;
2488;SDS011;1255;48.716;9.124;2023-10-09T19:20:10;9.20;;;3.83;;
2488;SDS011;1255;48.716;9.124;2023-10-09T19:22:37;6.20;;;3.60;;
2488;SDS011;1255;48.716;9.124;2023-10-09T19:25:07;8.30;;;3.60;;
2488;SDS011;1255;48.716;9.124;2023-10-09T19:27:41;7.47;;;3.70;;